createdAt,value
2022-09-24T00:01:18.742Z,17.98
2022-09-24T00:06:23.004Z,19.60
2022-09-24T00:11:27.762Z,19.33
2022-09-24T00:16:33.990Z,18.93
2022-09-24T00:21:38.433Z,18.93
2022-09-24T00:26:53.786Z,20.17
2022-09-24T00:31:58.116Z,19.17
2022-09-24T00:37:01.182Z,18.55
2022-09-24T00:42:04.097Z,19.17
2022-09-24T00:47:14.844Z,19.35
2022-09-24T00:52:19.807Z,18.20
2022-09-24T00:57:23.999Z,17.67
2022-09-24T01:02:28.474Z,18.27
2022-09-24T01:07:31.518Z,19.07
2022-09-24T01:12:40.677Z,20.63
2022-09-24T01:17:52.417Z,20.53
2022-09-24T01:23:10.937Z,20.80
2022-09-24T01:28:33.171Z,19.37
2022-09-24T01:33:38.090Z,18.97
2022-09-24T01:38:44.468Z,20.17
2022-09-24T01:43:48.430Z,20.60
2022-09-24T01:48:52.874Z,19.53
2022-09-24T01:53:58.929Z,19.80
2022-09-24T01:59:05.740Z,18.37
2022-09-24T02:04:16.744Z,18.93
2022-09-24T02:09:34.634Z,18.03
2022-09-24T02:14:41.222Z,17.83
2022-09-24T02:19:47.860Z,18.17
2022-09-24T02:24:53.874Z,16.03
2022-09-24T02:29:58.306Z,16.97
2022-09-24T02:35:06.853Z,17.97
2022-09-24T02:40:13.200Z,16.57
2022-09-24T02:45:16.259Z,16.87
2022-09-24T02:50:20.734Z,15.90
2022-09-24T02:55:24.243Z,15.93
2022-09-24T03:00:27.185Z,15.90
2022-09-24T03:05:32.013Z,15.70
2022-09-24T03:10:35.041Z,15.47
2022-09-24T03:15:38.259Z,16.03
2022-09-24T03:20:42.840Z,15.90
2022-09-24T03:25:45.708Z,16.70
2022-09-24T03:31:01.081Z,16.30
2022-09-24T03:36:07.203Z,17.13
2022-09-24T03:41:11.707Z,17.40
2022-09-24T03:46:17.367Z,15.80
2022-09-24T03:51:22.851Z,15.90
2022-09-24T03:56:25.826Z,17.00
2022-09-24T04:01:32.585Z,14.80
2022-09-24T04:06:37.353Z,15.13
2022-09-24T04:11:40.334Z,15.10
2022-09-24T04:16:43.546Z,15.43
2022-09-24T04:21:48.023Z,17.87
2022-09-24T04:26:51.570Z,15.73
2022-09-24T04:31:54.704Z,17.60
2022-09-24T04:36:58.974Z,16.77
2022-09-24T04:42:01.946Z,16.63
2022-09-24T04:47:07.584Z,16.60
2022-09-24T04:52:11.969Z,17.90
2022-09-24T04:57:14.916Z,16.17
2022-09-24T05:02:18.737Z,17.17
2022-09-24T05:07:23.386Z,17.40
2022-09-24T05:12:26.335Z,17.43
2022-09-24T05:17:29.453Z,16.17
2022-09-24T05:22:33.927Z,16.50
2022-09-24T05:27:36.842Z,17.73
2022-09-24T05:32:40.057Z,16.80
2022-09-24T05:37:44.526Z,17.13
2022-09-24T05:42:47.434Z,16.80
2022-09-24T05:47:50.791Z,19.03
2022-09-24T05:52:55.300Z,17.77
2022-09-24T05:58:03.811Z,19.57
2022-09-24T06:03:09.035Z,17.90
2022-09-24T06:08:15.374Z,17.83
2022-09-24T06:13:20.881Z,16.90
2022-09-24T06:18:24.604Z,19.20
2022-09-24T06:23:29.266Z,19.20
2022-09-24T06:28:32.212Z,18.30
2022-09-24T06:33:35.195Z,20.03
2022-09-24T06:38:41.320Z,18.97
2022-09-24T06:43:44.250Z,19.03
2022-09-24T06:48:51.910Z,19.70
2022-09-24T06:53:56.453Z,21.05
2022-09-24T06:58:59.636Z,19.33
2022-09-24T07:04:03.151Z,21.80
2022-09-24T07:09:09.628Z,21.37
2022-09-24T07:14:13.704Z,18.60
2022-09-24T07:19:16.603Z,17.50
2022-09-24T07:24:20.973Z,17.17
2022-09-24T07:29:24.502Z,16.88
2022-09-24T07:34:27.534Z,15.67
2022-09-24T07:39:33.004Z,16.37
2022-09-24T07:44:36.752Z,16.30
2022-09-24T07:49:39.792Z,16.10
2022-09-24T07:54:44.416Z,15.33
2022-09-24T07:59:48.054Z,13.73
2022-09-24T08:04:51.035Z,14.00
2022-09-24T08:09:55.503Z,13.20
2022-09-24T08:14:58.414Z,12.97
2022-09-24T08:20:01.449Z,13.48
2022-09-24T08:25:06.697Z,12.63
2022-09-24T08:30:10.829Z,13.07
2022-09-24T08:35:15.759Z,13.73
2022-09-24T08:40:23.617Z,13.77
2022-09-24T08:45:44.247Z,13.82
2022-09-24T08:50:53.389Z,13.82
2022-09-24T08:56:00.500Z,13.50
2022-09-24T09:01:14.398Z,11.95
2022-09-24T09:06:44.368Z,13.20
2022-09-24T09:11:51.270Z,12.65
2022-09-24T09:16:59.538Z,12.93
2022-09-24T09:22:06.429Z,12.93
2022-09-24T09:27:15.293Z,12.77
2022-09-24T09:32:27.094Z,12.20
2022-09-24T09:37:39.902Z,11.65
2022-09-24T09:42:45.551Z,10.32
2022-09-24T10:01:42.689Z,11.30
2022-09-24T10:06:45.879Z,12.23
2022-09-24T10:11:49.216Z,10.70
2022-09-24T10:16:56.646Z,10.30
2022-09-24T10:22:08.579Z,10.33
2022-09-24T10:27:12.805Z,11.20
2022-09-24T10:32:20.613Z,10.85
2022-09-24T10:37:23.672Z,8.85
2022-09-24T10:42:28.572Z,8.40
2022-09-24T10:47:45.211Z,9.73
2022-09-24T10:52:54.294Z,8.27
2022-09-24T10:58:04.062Z,7.75
2022-09-24T11:03:39.509Z,8.23
2022-09-24T11:09:07.429Z,5.95
2022-09-24T11:14:28.110Z,5.47
2022-09-24T11:20:00.908Z,5.43
2022-09-24T11:25:27.455Z,7.32
2022-09-24T11:30:40.708Z,7.05
2022-09-24T11:35:57.273Z,6.10
2022-09-24T11:41:12.708Z,6.43
2022-09-24T11:46:29.656Z,5.22
2022-09-24T11:51:45.746Z,6.72
2022-09-24T11:56:55.193Z,5.72
2022-09-24T12:02:02.307Z,6.97
2022-09-24T12:07:13.275Z,6.18
2022-09-24T12:12:22.113Z,6.80
2022-09-24T12:17:29.408Z,6.85
2022-09-24T12:22:34.156Z,7.43
2022-09-24T12:27:40.015Z,7.75
2022-09-24T12:32:58.112Z,7.15
2022-09-24T12:38:07.801Z,5.53
2022-09-24T12:43:25.228Z,4.50
2022-09-24T12:48:30.987Z,6.10
2022-09-24T12:53:36.862Z,5.87
2022-09-24T12:58:43.776Z,6.53
2022-09-24T13:03:47.674Z,3.73
2022-09-24T13:08:51.570Z,2.40
2022-09-24T13:14:09.572Z,3.10
2022-09-24T13:19:25.390Z,4.90
2022-09-24T13:24:30.431Z,2.90
2022-09-24T13:29:39.954Z,5.77
2022-09-24T13:34:48.823Z,5.00
2022-09-24T13:39:57.289Z,6.07
2022-09-24T13:45:07.560Z,6.43
2022-09-24T13:50:18.542Z,12.33
2022-09-24T13:55:25.630Z,10.30
2022-09-24T14:00:32.353Z,10.70
2022-09-24T14:05:37.511Z,10.43
2022-09-24T14:10:41.093Z,7.73
2022-09-24T14:15:53.836Z,9.60
2022-09-24T14:21:00.536Z,4.80
2022-09-24T14:26:05.133Z,5.60
2022-09-24T14:31:10.582Z,3.33
2022-09-24T14:36:15.854Z,5.13
2022-09-24T14:41:21.485Z,4.03
2022-09-24T14:46:29.840Z,2.33
2022-09-24T14:51:33.742Z,9.07
2022-09-24T14:56:37.197Z,3.70
2022-09-24T15:01:41.995Z,6.37
2022-09-24T20:33:21.230Z,5.87
2022-09-24T20:38:25.685Z,7.13
2022-09-24T20:43:28.778Z,5.60
2022-09-24T20:48:33.341Z,7.60
2022-09-24T20:53:37.777Z,7.03
2022-09-24T20:58:40.980Z,5.03
2022-09-24T21:03:45.251Z,4.57
2022-09-24T21:08:50.698Z,4.37
2022-09-24T21:13:55.317Z,6.33
2022-09-24T21:18:59.160Z,5.93
2022-09-24T21:24:03.807Z,6.77
2022-09-24T21:29:09.155Z,7.97
2022-09-24T21:34:13.803Z,7.03
2022-09-24T21:39:20.337Z,5.87
2022-09-24T21:44:23.250Z,3.57
2022-09-24T21:49:26.544Z,4.33
2022-09-24T21:54:33.224Z,6.50
2022-09-24T21:59:54.105Z,9.10
2022-09-24T22:04:57.084Z,5.07
2022-09-24T22:10:01.506Z,7.77
2022-09-24T22:15:05.074Z,10.67
2022-09-24T22:20:09.047Z,7.03
2022-09-24T22:25:13.517Z,5.20
2022-09-24T22:30:16.470Z,7.27
2022-09-24T22:35:42.326Z,6.87
2022-09-24T22:40:47.969Z,5.40
2022-09-24T22:45:51.096Z,5.57
2022-09-24T22:50:54.154Z,7.57
2022-09-24T22:56:06.086Z,9.43
2022-09-24T23:01:09.779Z,6.27
2022-09-24T23:06:13.039Z,7.57
2022-09-24T23:11:19.478Z,5.93
2022-09-24T23:16:24.417Z,6.83
2022-09-24T23:21:30.579Z,5.67
2022-09-24T23:26:35.456Z,7.50
2022-09-24T23:31:38.340Z,5.97
2022-09-24T23:36:41.540Z,7.33
2022-09-24T23:41:46.112Z,8.23
2022-09-24T23:46:49.154Z,6.30
2022-09-24T23:51:52.153Z,6.70
2022-09-24T23:56:57.089Z,5.13
